METAR Data
IDs: Format: Raw Decoded Include TAF

Data at: 0050 UTC 23 Mar 2019

KCFD 230035Z AUTO 15004KT 10SM CLR 21/07 A3007 RMK AO2 T02120065
KCFD 230015Z AUTO 16005KT 10SM CLR 22/06 A3007 RMK AO2 T02200063
KCFD 222355Z AUTO 16007KT 10SM CLR 23/06 A3007 RMK AO2 T02280059 10254 20228
KCFD 222335Z AUTO 17008G14KT 10SM CLR 24/06 A3007 RMK AO2 T02380062
KCFD 222315Z AUTO 13009KT 10SM CLR 24/07 A3006 RMK AO2 T02440066
KCFD 222255Z AUTO 15007KT 10SM CLR 24/07 A3006 RMK AO2 T02430068
KCFD 222235Z AUTO 14007KT 10SM CLR 24/07 A3006 RMK AO2 T02380070
KCFD 222215Z AUTO 14008KT 10SM CLR 24/07 A3007 RMK AO2 T02410074
KCFD 222155Z AUTO 12006G14KT 10SM CLR 24/07 A3007 RMK AO2 T02420069
KCFD 222135Z AUTO 16012G15KT 10SM CLR 25/08 A3007 RMK AO2 T02530077
KCFD 222115Z AUTO 14005KT 10SM CLR 25/07 A3008 RMK AO2 T02470074
KCFD 222055Z AUTO 10007KT 10SM CLR 25/07 A3009 RMK AO2 T02480070
KCFD 222035Z AUTO 12008KT 10SM CLR 25/07 A3010 RMK AO2 T02490069
KCFD 222015Z AUTO 13005KT 10SM CLR 24/07 A3011 RMK AO2 T02440068
KCFD 221955Z AUTO 17005KT 10SM CLR 24/07 A3012 RMK AO2 T02420073
KCFD 221935Z AUTO 00000KT 10SM CLR 24/08 A3013 RMK AO2 T02400082
KCFD 221915Z AUTO 13003KT 10SM CLR 24/08 A3015 RMK AO2 T02360077
KCFD 221855Z AUTO 14003KT 10SM CLR 23/06 A3015 RMK AO2 T02310063
KCFD 221835Z AUTO 17005KT 10SM CLR 24/07 A3017 RMK AO2 T02350067
KCFD 221815Z AUTO 16009KT 10SM CLR 24/07 A3018 RMK AO2 T02360071
KCFD 221755Z AUTO 17005KT 10SM CLR 23/07 A3019 RMK AO2 T02300068 10230 20082
KCFD 221735Z AUTO 18010KT 10SM CLR 23/07 A3019 RMK AO2 T02300074
KCFD 221715Z AUTO 19004KT 10SM CLR 23/08 A3019 RMK AO2 T02250078
KCFD 221655Z AUTO 20005KT 10SM CLR 22/09 A3020 RMK AO2 T02200086
KCFD 221635Z AUTO 13003KT 10SM CLR 21/11 A3021 RMK AO2 T02110106
KCFD 221615Z AUTO 00000KT 10SM CLR 20/11 A3022 RMK AO2 T02040109
KCFD 221555Z AUTO 00000KT 10SM CLR 20/11 A3022 RMK AO2 T01990110
KCFD 221535Z AUTO 00000KT 10SM CLR 19/12 A3022 RMK AO2 T01860117
KCFD 221515Z AUTO 00000KT 10SM CLR 17/12 A3022 RMK AO2 T01710122
KCFD 221455Z AUTO 00000KT 10SM CLR 16/12 A3023 RMK AO2 T01590118
KCFD 221435Z AUTO 00000KT 10SM CLR 15/12 A3022 RMK AO2 T01510121
KCFD 221415Z AUTO 00000KT 10SM CLR 14/12 A3022 RMK AO2 T01360120
KCFD 221355Z AUTO 00000KT 10SM CLR 12/11 A3021 RMK AO2 T01240113
KCFD 221335Z AUTO 00000KT 10SM CLR 11/11 A3020 RMK AO2 T01090109
KCFD 221315Z AUTO 00000KT 10SM CLR 10/10 A3019 RMK AO2 T00960096
KCFD 221255Z AUTO 00000KT 7SM CLR 08/08 A3018 RMK AO2 T00820082
KCFD 221235Z AUTO 00000KT 10SM CLR 09/09 A3018 RMK AO2 T00850085
KCFD 221215Z AUTO 00000KT 10SM CLR 10/10 A3018 RMK AO2 T00960096
KCFD 221155Z AUTO 00000KT 10SM CLR 10/10 A3018 RMK AO2 LTG DSNT NW T00950095 10130 20094
KCFD 221135Z AUTO 00000KT 10SM CLR 11/10 A3017 RMK AO2 T01100102
KCFD 221115Z AUTO 00000KT 10SM CLR 11/11 A3017 RMK AO2 T01130105
KCFD 221055Z AUTO 00000KT 10SM CLR 12/10 A3017 RMK AO2 T01160102
KCFD 221035Z AUTO 22004KT 10SM CLR 12/10 A3016 RMK AO2 T01150100
KCFD 221015Z AUTO 22004KT 10SM CLR 12/09 A3016 RMK AO2 T01160094
KCFD 220955Z AUTO 21005KT 10SM CLR 12/09 A3016 RMK AO2 T01160085
KCFD 220935Z AUTO 21004KT 10SM CLR 12/08 A3016 RMK AO2 T01200078
KCFD 220915Z AUTO 22006KT 10SM CLR 12/07 A3016 RMK AO2 T01200066
KCFD 220855Z AUTO 21005KT 10SM CLR 12/05 A3016 RMK AO2 T01220045
KCFD 220835Z AUTO 20004KT 10SM CLR 12/04 A3017 RMK AO2 T01200035
KCFD 220815Z AUTO 20005KT 10SM CLR 12/04 A3016 RMK AO2 T01230036
KCFD 220755Z AUTO 20004KT 10SM CLR 13/03 A3016 RMK AO2 T01300034
KCFD 220735Z AUTO 19004KT 10SM CLR 12/04 A3016 RMK AO2 T01220040
KCFD 220715Z AUTO 22004KT 10SM CLR 11/05 A3017 RMK AO2 T01100051
KCFD 220655Z AUTO 00000KT 10SM CLR 12/05 A3016 RMK AO2 T01170050
KCFD 220635Z AUTO 00000KT 10SM CLR 12/04 A3016 RMK AO2 T01160044
KCFD 220615Z AUTO 19003KT 10SM CLR 10/06 A3016 RMK AO2 T01030064
KCFD 220555Z AUTO 00000KT 10SM CLR 12/06 A3017 RMK AO2 T01190055 10220 20112 402320069
KCFD 220530Z AUTO 21003KT 10SM CLR 14/03 A3017 RMK AO2 T01440031
KCFD 220515Z AUTO 20003KT 10SM CLR 13/05 A3017 RMK AO2 T01310051
KCFD 220455Z AUTO 22004KT 10SM CLR 14/04 A3018 RMK AO2 T01440040
KCFD 220435Z AUTO 21004KT 10SM CLR 13/06 A3018 RMK AO2 T01310058
KCFD 220415Z AUTO 20003KT 10SM CLR 13/06 A3018 RMK AO2 T01340059
KCFD 220355Z AUTO 00000KT 10SM CLR 13/07 A3017 RMK AO2 T01290066
KCFD 220335Z AUTO 21004KT 10SM CLR 13/07 A3017 RMK AO2 T01300069
KCFD 220315Z AUTO 20003KT 10SM CLR 14/06 A3017 RMK AO2 T01380060
KCFD 220255Z AUTO 20003KT 10SM CLR 14/06 A3017 RMK AO2 T01420055
KCFD 220235Z AUTO 20003KT 10SM CLR 13/08 A3017 RMK AO2 T01310076
KCFD 220215Z AUTO 00000KT 10SM CLR 14/07 A3016 RMK AO2 T01430068
KCFD 220155Z AUTO 00000KT 10SM CLR 14/07 A3015 RMK AO2 T01370070
KCFD 220135Z AUTO 23003KT 10SM CLR 17/04 A3015 RMK AO2 T01720041
KCFD 220115Z AUTO 00000KT 10SM CLR 17/05 A3015 RMK AO2 T01710050
KCFD 220055Z AUTO 00000KT 10SM CLR 18/05 A3015 RMK AO2 T01750051
KCFD 220035Z AUTO 00000KT 10SM CLR 21/02 A3015 RMK AO2 T02070022
KCFD 220015Z AUTO 32003KT 10SM CLR 21/02 A3015 RMK AO2 T02120021
KCFD 212355Z AUTO 00000KT 10SM CLR 22/01 A3015 RMK AO2 T02200012 10232 20202
KCFD 212335Z AUTO 32003KT 10SM CLR 22/01 A3015 RMK AO2 T02240012
KCFD 212315Z AUTO 27004KT 10SM CLR 23/02 A3015 RMK AO2 T02270018
KCFD 212255Z AUTO 30003KT 10SM CLR 23/01 A3015 RMK AO2 T02280011
KCFD 212235Z AUTO 28003KT 10SM CLR 23/02 A3015 RMK AO2 T02280016
KCFD 212215Z AUTO 29006KT 10SM CLR 23/02 A3016 RMK AO2 T02320021
KCFD 212155Z AUTO 30005KT 10SM CLR 23/03 A3016 RMK AO2 T02270026
KCFD 212135Z AUTO 00000KT 10SM CLR 23/03 A3017 RMK AO2 T02290028
KCFD 212115Z AUTO 28006KT 10SM CLR 23/03 A3018 RMK AO2 T02280030
KCFD 212055Z AUTO 33004KT 10SM CLR 23/03 A3018 RMK AO2 T02270029
KCFD 212035Z AUTO 26003KT 10SM CLR 22/02 A3019 RMK AO2 T02240021
KCFD 212015Z AUTO 27003KT 10SM CLR 22/03 A3020 RMK AO2 T02210030
KCFD 211955Z AUTO 30005KT 10SM CLR 22/03 A3021 RMK AO2 T02220029
KCFD 211935Z AUTO 29003KT 10SM CLR 22/02 A3021 RMK AO2 T02200024
KCFD 211915Z AUTO 29003KT 10SM CLR 22/02 A3022 RMK AO2 T02150023
KCFD 211855Z AUTO 25004KT 10SM CLR 21/04 A3023 RMK AO2 T02110035
KCFD 211835Z AUTO 00000KT 10SM CLR 21/04 A3025 RMK AO2 T02060036
KCFD 211815Z AUTO 00000KT 10SM CLR 20/02 A3025 RMK AO2 T02020024
KCFD 211755Z AUTO 26003KT 10SM CLR 20/03 A3027 RMK AO2 T02030034 10203 20072
KCFD 211735Z AUTO 24005KT 10SM CLR 20/04 A3027 RMK AO2 T01970036
KCFD 211715Z AUTO 28004KT 10SM CLR 19/03 A3028 RMK AO2 T01910031
KCFD 211655Z AUTO 28003KT 10SM CLR 19/04 A3028 RMK AO2 T01880044
KCFD 211635Z AUTO 29004KT 10SM CLR 18/05 A3029 RMK AO2 T01840054
KCFD 211615Z AUTO 27006KT 10SM CLR 18/05 A3029 RMK AO2 T01840049
KCFD 211555Z AUTO 28004KT 10SM CLR 17/07 A3029 RMK AO2 T01730068
KCFD 211535Z AUTO 22004KT 10SM CLR 16/08 A3029 RMK AO2 T01640081
KCFD 211515Z AUTO 21004KT 10SM CLR 16/08 A3029 RMK AO2 T01580084
KCFD 211455Z AUTO 23003KT 10SM CLR 15/08 A3029 RMK AO2 T01500082
KCFD 211435Z AUTO 24003KT 10SM CLR 14/09 A3028 RMK AO2 T01380086
KCFD 211415Z AUTO 00000KT 10SM CLR 12/09 A3028 RMK AO2 T01240092
KCFD 211355Z AUTO 27003KT 10SM CLR 11/09 A3028 RMK AO2 T01110093
KCFD 211335Z AUTO 27003KT 10SM CLR 10/10 A3026 RMK AO2 T00970095
KCFD 211315Z AUTO 28003KT 10SM CLR 09/09 A3026 RMK AO2 T00870087
KCFD 211255Z AUTO 29003KT 10SM CLR 08/08 A3025 RMK AO2 T00790079